sensor_id;sensor_type;location;lat;lon;timestamp;temperature;humidity
59208;DHT22;44977;53.132;6.408;2023-04-05T00:02:09;2.70;99.90
59208;DHT22;44977;53.132;6.408;2023-04-05T00:07:13;2.60;99.90
59208;DHT22;44977;53.132;6.408;2023-04-05T00:12:13;2.50;99.90
59208;DHT22;44977;53.132;6.408;2023-04-05T00:17:14;2.40;99.90
59208;DHT22;44977;53.132;6.408;2023-04-05T00:22:16;2.40;99.90
59208;DHT22;44977;53.132;6.408;2023-04-05T00:27:19;2.30;99.90
59208;DHT22;44977;53.132;6.408;2023-04-05T00:32:21;2.20;99.90
59208;DHT22;44977;53.132;6.408;2023-04-05T00:37:21;2.20;99.90
59208;DHT22;44977;53.132;6.408;2023-04-05T00:42:22;2.10;99.90
59208;DHT22;44977;53.132;6.408;2023-04-05T00:47:23;2.00;99.90
59208;DHT22;44977;53.132;6.408;2023-04-05T00:52:24;1.90;99.90
59208;DHT22;44977;53.132;6.408;2023-04-05T00:57:26;1.90;99.90
59208;DHT22;44977;53.132;6.408;2023-04-05T01:02:35;1.90;99.90
59208;DHT22;44977;53.132;6.408;2023-04-05T01:07:55;1.80;99.90
59208;DHT22;44977;53.132;6.408;2023-04-05T01:12:58;1.70;99.90
59208;DHT22;44977;53.132;6.408;2023-04-05T01:17:59;1.70;99.90
59208;DHT22;44977;53.132;6.408;2023-04-05T01:23:24;1.60;99.90
59208;DHT22;44977;53.132;6.408;2023-04-05T01:34:06;1.50;99.90
59208;DHT22;44977;53.132;6.408;2023-04-05T01:39:09;1.40;99.90
59208;DHT22;44977;53.132;6.408;2023-04-05T01:44:11;1.40;99.90
59208;DHT22;44977;53.132;6.408;2023-04-05T01:49:11;1.40;99.90
59208;DHT22;44977;53.132;6.408;2023-04-05T01:54:12;1.30;99.90
59208;DHT22;44977;53.132;6.408;2023-04-05T01:59:13;1.30;99.90
59208;DHT22;44977;53.132;6.408;2023-04-05T02:04:13;1.20;99.90
59208;DHT22;44977;53.132;6.408;2023-04-05T02:09:14;1.20;99.90
59208;DHT22;44977;53.132;6.408;2023-04-05T02:14:15;1.20;99.90
59208;DHT22;44977;53.132;6.408;2023-04-05T02:19:16;1.10;99.90
59208;DHT22;44977;53.132;6.408;2023-04-05T02:24:22;1.10;99.90
59208;DHT22;44977;53.132;6.408;2023-04-05T02:29:22;1.10;99.90
59208;DHT22;44977;53.132;6.408;2023-04-05T02:34:23;1.00;99.90
59208;DHT22;44977;53.132;6.408;2023-04-05T02:39:24;1.00;99.90
59208;DHT22;44977;53.132;6.408;2023-04-05T02:44:25;1.00;99.90
59208;DHT22;44977;53.132;6.408;2023-04-05T02:49:26;0.90;99.90
59208;DHT22;44977;53.132;6.408;2023-04-05T02:54:27;0.90;99.90
59208;DHT22;44977;53.132;6.408;2023-04-05T02:59:27;0.90;99.90
59208;DHT22;44977;53.132;6.408;2023-04-05T03:04:28;0.80;99.90
59208;DHT22;44977;53.132;6.408;2023-04-05T03:09:30;0.80;99.90
59208;DHT22;44977;53.132;6.408;2023-04-05T03:14:34;0.70;99.90
59208;DHT22;44977;53.132;6.408;2023-04-05T03:19:35;0.70;99.90
59208;DHT22;44977;53.132;6.408;2023-04-05T03:24:35;0.60;99.90
59208;DHT22;44977;53.132;6.408;2023-04-05T03:29:36;0.60;99.90
59208;DHT22;44977;53.132;6.408;2023-04-05T03:34:37;0.50;99.90
59208;DHT22;44977;53.132;6.408;2023-04-05T03:39:38;0.50;99.90
59208;DHT22;44977;53.132;6.408;2023-04-05T03:44:38;0.50;99.90
59208;DHT22;44977;53.132;6.408;2023-04-05T03:49:39;0.50;99.90
59208;DHT22;44977;53.132;6.408;2023-04-05T03:54:40;0.40;99.90
59208;DHT22;44977;53.132;6.408;2023-04-05T03:59:41;0.40;99.90
59208;DHT22;44977;53.132;6.408;2023-04-05T04:04:41;0.30;99.90
59208;DHT22;44977;53.132;6.408;2023-04-05T04:09:42;0.30;99.90
59208;DHT22;44977;53.132;6.408;2023-04-05T04:14:43;0.30;99.90
59208;DHT22;44977;53.132;6.408;2023-04-05T04:19:44;0.20;99.90
59208;DHT22;44977;53.132;6.408;2023-04-05T04:24:45;0.20;99.90
59208;DHT22;44977;53.132;6.408;2023-04-05T04:29:49;0.20;99.90
59208;DHT22;44977;53.132;6.408;2023-04-05T04:34:56;0.20;99.90
59208;DHT22;44977;53.132;6.408;2023-04-05T04:39:58;0.10;99.90
59208;DHT22;44977;53.132;6.408;2023-04-05T04:45:03;0.10;99.90
59208;DHT22;44977;53.132;6.408;2023-04-05T04:50:04;0.10;99.90
59208;DHT22;44977;53.132;6.408;2023-04-05T04:55:07;0.00;99.90
59208;DHT22;44977;53.132;6.408;2023-04-05T05:00:09;0.00;99.90
59208;DHT22;44977;53.132;6.408;2023-04-05T05:05:13;0.00;99.90
59208;DHT22;44977;53.132;6.408;2023-04-05T05:10:14;0.00;99.90
59208;DHT22;44977;53.132;6.408;2023-04-05T05:15:15;0.00;99.90
59208;DHT22;44977;53.132;6.408;2023-04-05T05:20:16;0.00;99.90
59208;DHT22;44977;53.132;6.408;2023-04-05T05:25:17;0.00;99.90
59208;DHT22;44977;53.132;6.408;2023-04-05T05:30:18;-0.10;99.90
59208;DHT22;44977;53.132;6.408;2023-04-05T05:35:20;-0.10;99.90
59208;DHT22;44977;53.132;6.408;2023-04-05T05:40:20;-0.10;99.90
59208;DHT22;44977;53.132;6.408;2023-04-05T05:45:21;-0.10;99.90
59208;DHT22;44977;53.132;6.408;2023-04-05T05:50:22;-0.10;99.90
59208;DHT22;44977;53.132;6.408;2023-04-05T05:55:22;-0.10;99.90
59208;DHT22;44977;53.132;6.408;2023-04-05T06:00:23;0.00;99.90
59208;DHT22;44977;53.132;6.408;2023-04-05T06:05:24;0.10;99.90
59208;DHT22;44977;53.132;6.408;2023-04-05T06:10:25;0.20;99.90
59208;DHT22;44977;53.132;6.408;2023-04-05T06:15:26;0.30;99.90
59208;DHT22;44977;53.132;6.408;2023-04-05T06:20:27;0.40;99.90
59208;DHT22;44977;53.132;6.408;2023-04-05T06:25:27;0.60;99.90
59208;DHT22;44977;53.132;6.408;2023-04-05T06:30:28;0.80;99.90
59208;DHT22;44977;53.132;6.408;2023-04-05T06:35:29;1.10;99.90
59208;DHT22;44977;53.132;6.408;2023-04-05T06:40:30;1.40;99.90
59208;DHT22;44977;53.132;6.408;2023-04-05T06:45:31;1.60;99.90
59208;DHT22;44977;53.132;6.408;2023-04-05T06:50:31;1.80;99.90
59208;DHT22;44977;53.132;6.408;2023-04-05T06:55:32;2.10;99.90
59208;DHT22;44977;53.132;6.408;2023-04-05T07:00:33;2.30;99.90
59208;DHT22;44977;53.132;6.408;2023-04-05T07:05:34;2.60;99.90
59208;DHT22;44977;53.132;6.408;2023-04-05T07:10:38;2.80;99.90
59208;DHT22;44977;53.132;6.408;2023-04-05T07:15:39;3.10;99.90
59208;DHT22;44977;53.132;6.408;2023-04-05T07:20:39;3.30;99.90
59208;DHT22;44977;53.132;6.408;2023-04-05T07:25:40;3.50;99.90
59208;DHT22;44977;53.132;6.408;2023-04-05T07:30:41;3.80;99.90
59208;DHT22;44977;53.132;6.408;2023-04-05T07:35:42;4.10;99.90
59208;DHT22;44977;53.132;6.408;2023-04-05T07:40:42;4.40;99.90
59208;DHT22;44977;53.132;6.408;2023-04-05T07:45:44;4.70;99.90
59208;DHT22;44977;53.132;6.408;2023-04-05T07:50:45;5.00;99.90
59208;DHT22;44977;53.132;6.408;2023-04-05T07:55:48;5.20;99.90
59208;DHT22;44977;53.132;6.408;2023-04-05T08:00:49;5.50;99.90
59208;DHT22;44977;53.132;6.408;2023-04-05T08:05:50;5.70;99.90
59208;DHT22;44977;53.132;6.408;2023-04-05T08:10:50;6.00;99.90
59208;DHT22;44977;53.132;6.408;2023-04-05T08:15:55;6.30;99.90
59208;DHT22;44977;53.132;6.408;2023-04-05T08:20:56;6.60;99.90
59208;DHT22;44977;53.132;6.408;2023-04-05T08:25:57;6.80;99.90
59208;DHT22;44977;53.132;6.408;2023-04-05T08:30:57;7.10;99.90
59208;DHT22;44977;53.132;6.408;2023-04-05T08:36:04;7.40;99.90
59208;DHT22;44977;53.132;6.408;2023-04-05T08:41:16;7.60;99.90
59208;DHT22;44977;53.132;6.408;2023-04-05T08:46:17;7.90;97.90
59208;DHT22;44977;53.132;6.408;2023-04-05T08:51:20;8.10;95.20
59208;DHT22;44977;53.132;6.408;2023-04-05T08:56:26;8.20;92.90
59208;DHT22;44977;53.132;6.408;2023-04-05T09:01:31;8.50;91.70
59208;DHT22;44977;53.132;6.408;2023-04-05T09:06:35;8.80;90.80
59208;DHT22;44977;53.132;6.408;2023-04-05T09:11:37;8.90;86.30
59208;DHT22;44977;53.132;6.408;2023-04-05T09:16:40;9.00;81.70
59208;DHT22;44977;53.132;6.408;2023-04-05T09:22:00;9.20;80.10
59208;DHT22;44977;53.132;6.408;2023-04-05T09:27:13;9.40;82.40
59208;DHT22;44977;53.132;6.408;2023-04-05T09:32:15;9.50;79.50
59208;DHT22;44977;53.132;6.408;2023-04-05T09:37:20;9.80;79.10
59208;DHT22;44977;53.132;6.408;2023-04-05T09:42:21;9.90;76.90
59208;DHT22;44977;53.132;6.408;2023-04-05T09:47:27;10.00;74.50
59208;DHT22;44977;53.132;6.408;2023-04-05T09:52:32;10.10;75.40
59208;DHT22;44977;53.132;6.408;2023-04-05T09:57:35;10.50;75.10
59208;DHT22;44977;53.132;6.408;2023-04-05T10:02:39;10.40;70.80
59208;DHT22;44977;53.132;6.408;2023-04-05T10:07:43;10.70;72.60
59208;DHT22;44977;53.132;6.408;2023-04-05T10:12:45;10.80;70.00
59208;DHT22;44977;53.132;6.408;2023-04-05T10:17:53;10.80;68.60
59208;DHT22;44977;53.132;6.408;2023-04-05T10:23:06;11.20;70.60
59208;DHT22;44977;53.132;6.408;2023-04-05T10:33:17;11.30;68.00
59208;DHT22;44977;53.132;6.408;2023-04-05T10:38:20;11.40;66.10
59208;DHT22;44977;53.132;6.408;2023-04-05T10:43:24;11.40;66.70
59208;DHT22;44977;53.132;6.408;2023-04-05T10:48:36;11.70;66.00
59208;DHT22;44977;53.132;6.408;2023-04-05T10:53:40;11.60;63.30
59208;DHT22;44977;53.132;6.408;2023-04-05T10:58:42;11.70;63.00
59208;DHT22;44977;53.132;6.408;2023-04-05T11:08:45;11.90;60.40
59208;DHT22;44977;53.132;6.408;2023-04-05T11:13:52;11.50;62.50
59208;DHT22;44977;53.132;6.408;2023-04-05T11:18:53;11.90;63.70
59208;DHT22;44977;53.132;6.408;2023-04-05T11:24:08;12.00;62.50
59208;DHT22;44977;53.132;6.408;2023-04-05T11:29:11;12.00;61.40
59208;DHT22;44977;53.132;6.408;2023-04-05T11:34:12;12.10;62.10
59208;DHT22;44977;53.132;6.408;2023-04-05T11:44:20;12.20;59.60
59208;DHT22;44977;53.132;6.408;2023-04-05T11:49:22;12.40;63.10
59208;DHT22;44977;53.132;6.408;2023-04-05T11:54:31;12.50;60.20
59208;DHT22;44977;53.132;6.408;2023-04-05T11:59:35;12.50;59.30
59208;DHT22;44977;53.132;6.408;2023-04-05T12:04:36;12.20;59.00
59208;DHT22;44977;53.132;6.408;2023-04-05T12:10:05;12.50;58.90
59208;DHT22;44977;53.132;6.408;2023-04-05T12:15:12;12.50;59.40
59208;DHT22;44977;53.132;6.408;2023-04-05T12:20:19;12.60;56.40
59208;DHT22;44977;53.132;6.408;2023-04-05T12:25:21;12.70;57.40
59208;DHT22;44977;53.132;6.408;2023-04-05T12:30:22;12.70;56.80
59208;DHT22;44977;53.132;6.408;2023-04-05T12:35:27;12.60;57.30
59208;DHT22;44977;53.132;6.408;2023-04-05T12:40:35;12.90;59.50
59208;DHT22;44977;53.132;6.408;2023-04-05T12:45:36;12.90;55.60
59208;DHT22;44977;53.132;6.408;2023-04-05T12:50:48;12.90;55.10
59208;DHT22;44977;53.132;6.408;2023-04-05T12:55:53;13.00;56.40
59208;DHT22;44977;53.132;6.408;2023-04-05T13:00:57;12.90;56.00
59208;DHT22;44977;53.132;6.408;2023-04-05T13:05:58;12.90;56.50
59208;DHT22;44977;53.132;6.408;2023-04-05T13:10:59;13.00;56.50
59208;DHT22;44977;53.132;6.408;2023-04-05T13:16:00;13.10;53.90
59208;DHT22;44977;53.132;6.408;2023-04-05T13:21:01;13.10;55.40
59208;DHT22;44977;53.132;6.408;2023-04-05T13:26:07;12.90;54.00
59208;DHT22;44977;53.132;6.408;2023-04-05T13:31:08;12.80;57.00
59208;DHT22;44977;53.132;6.408;2023-04-05T13:36:09;12.80;55.30
59208;DHT22;44977;53.132;6.408;2023-04-05T13:41:11;12.70;54.30
59208;DHT22;44977;53.132;6.408;2023-04-05T13:46:15;12.70;55.10
59208;DHT22;44977;53.132;6.408;2023-04-05T13:51:15;12.80;56.80
59208;DHT22;44977;53.132;6.408;2023-04-05T13:56:16;12.90;55.00
59208;DHT22;44977;53.132;6.408;2023-04-05T14:01:17;12.30;52.30
59208;DHT22;44977;53.132;6.408;2023-04-05T14:06:17;12.40;54.30
59208;DHT22;44977;53.132;6.408;2023-04-05T14:11:18;12.60;56.60
59208;DHT22;44977;53.132;6.408;2023-04-05T14:16:19;12.70;55.10
59208;DHT22;44977;53.132;6.408;2023-04-05T14:21:19;12.70;55.10
59208;DHT22;44977;53.132;6.408;2023-04-05T14:26:20;12.70;55.10
59208;DHT22;44977;53.132;6.408;2023-04-05T14:31:22;12.70;54.20
59208;DHT22;44977;53.132;6.408;2023-04-05T14:36:24;12.60;54.20
59208;DHT22;44977;53.132;6.408;2023-04-05T14:41:26;12.80;57.00
59208;DHT22;44977;53.132;6.408;2023-04-05T14:46:27;12.80;55.70
59208;DHT22;44977;53.132;6.408;2023-04-05T14:51:27;12.90;56.00
59208;DHT22;44977;53.132;6.408;2023-04-05T14:56:28;13.00;55.70
59208;DHT22;44977;53.132;6.408;2023-04-05T15:01:29;13.00;55.80
59208;DHT22;44977;53.132;6.408;2023-04-05T15:06:31;12.80;55.60
59208;DHT22;44977;53.132;6.408;2023-04-05T15:11:31;12.50;55.70
59208;DHT22;44977;53.132;6.408;2023-04-05T15:16:35;12.20;55.80
59208;DHT22;44977;53.132;6.408;2023-04-05T15:21:35;12.30;55.70
59208;DHT22;44977;53.132;6.408;2023-04-05T15:26:38;12.30;56.60
59208;DHT22;44977;53.132;6.408;2023-04-05T15:31:40;12.40;55.90
59208;DHT22;44977;53.132;6.408;2023-04-05T15:36:41;12.50;56.00
59208;DHT22;44977;53.132;6.408;2023-04-05T15:41:42;12.40;55.30
59208;DHT22;44977;53.132;6.408;2023-04-05T15:46:42;12.40;54.30
59208;DHT22;44977;53.132;6.408;2023-04-05T15:51:43;12.40;55.30
59208;DHT22;44977;53.132;6.408;2023-04-05T15:56:44;12.40;56.60
59208;DHT22;44977;53.132;6.408;2023-04-05T16:01:45;12.40;56.80
59208;DHT22;44977;53.132;6.408;2023-04-05T16:06:46;12.30;55.50
59208;DHT22;44977;53.132;6.408;2023-04-05T16:11:46;12.20;56.00
59208;DHT22;44977;53.132;6.408;2023-04-05T16:16:47;12.00;55.80
59208;DHT22;44977;53.132;6.408;2023-04-05T16:21:48;11.90;57.60
59208;DHT22;44977;53.132;6.408;2023-04-05T16:26:49;11.80;57.30
59208;DHT22;44977;53.132;6.408;2023-04-05T16:31:50;11.70;55.90
59208;DHT22;44977;53.132;6.408;2023-04-05T16:36:51;11.50;56.60
59208;DHT22;44977;53.132;6.408;2023-04-05T16:41:52;11.50;58.10
59208;DHT22;44977;53.132;6.408;2023-04-05T16:46:53;11.40;58.00
59208;DHT22;44977;53.132;6.408;2023-04-05T16:51:54;11.30;58.80
59208;DHT22;44977;53.132;6.408;2023-04-05T16:56:55;11.20;59.30
59208;DHT22;44977;53.132;6.408;2023-04-05T17:01:55;11.20;58.50
59208;DHT22;44977;53.132;6.408;2023-04-05T17:06:57;11.10;58.60
59208;DHT22;44977;53.132;6.408;2023-04-05T17:11:58;11.00;56.80
59208;DHT22;44977;53.132;6.408;2023-04-05T17:16:58;10.80;58.90
59208;DHT22;44977;53.132;6.408;2023-04-05T17:21:59;10.60;58.50
59208;DHT22;44977;53.132;6.408;2023-04-05T17:27:00;10.50;59.20
59208;DHT22;44977;53.132;6.408;2023-04-05T17:32:01;10.40;59.30
59208;DHT22;44977;53.132;6.408;2023-04-05T17:37:01;10.30;59.50
59208;DHT22;44977;53.132;6.408;2023-04-05T17:42:02;10.20;58.90
59208;DHT22;44977;53.132;6.408;2023-04-05T17:47:03;10.10;59.30
59208;DHT22;44977;53.132;6.408;2023-04-05T17:52:04;10.00;59.30
59208;DHT22;44977;53.132;6.408;2023-04-05T17:57:07;10.00;59.60
59208;DHT22;44977;53.132;6.408;2023-04-05T18:02:14;9.80;60.00
59208;DHT22;44977;53.132;6.408;2023-04-05T18:07:15;9.70;61.80
59208;DHT22;44977;53.132;6.408;2023-04-05T18:12:16;9.50;61.60
59208;DHT22;44977;53.132;6.408;2023-04-05T18:17:17;9.40;62.50
59208;DHT22;44977;53.132;6.408;2023-04-05T18:22:18;9.30;61.70
59208;DHT22;44977;53.132;6.408;2023-04-05T18:27:19;9.20;62.10
59208;DHT22;44977;53.132;6.408;2023-04-05T18:32:20;9.10;62.40
59208;DHT22;44977;53.132;6.408;2023-04-05T18:37:20;8.90;63.50
59208;DHT22;44977;53.132;6.408;2023-04-05T18:42:21;8.70;63.90
59208;DHT22;44977;53.132;6.408;2023-04-05T18:47:22;8.60;64.70
59208;DHT22;44977;53.132;6.408;2023-04-05T18:52:25;8.50;64.30
59208;DHT22;44977;53.132;6.408;2023-04-05T18:57:27;8.40;64.80
59208;DHT22;44977;53.132;6.408;2023-04-05T19:02:28;8.30;65.50
59208;DHT22;44977;53.132;6.408;2023-04-05T19:07:29;8.10;65.70
59208;DHT22;44977;53.132;6.408;2023-04-05T19:12:30;8.00;66.80
59208;DHT22;44977;53.132;6.408;2023-04-05T19:17:30;8.00;67.80
59208;DHT22;44977;53.132;6.408;2023-04-05T19:22:31;8.00;69.10
59208;DHT22;44977;53.132;6.408;2023-04-05T19:27:32;7.90;70.20
59208;DHT22;44977;53.132;6.408;2023-04-05T19:32:34;7.70;70.70
59208;DHT22;44977;53.132;6.408;2023-04-05T19:37:35;7.50;72.20
59208;DHT22;44977;53.132;6.408;2023-04-05T19:42:36;7.40;72.80
59208;DHT22;44977;53.132;6.408;2023-04-05T19:47:40;7.30;73.70
59208;DHT22;44977;53.132;6.408;2023-04-05T19:52:47;7.20;74.60
59208;DHT22;44977;53.132;6.408;2023-04-05T19:57:48;7.10;75.00
59208;DHT22;44977;53.132;6.408;2023-04-05T20:02:48;7.10;75.80
59208;DHT22;44977;53.132;6.408;2023-04-05T20:07:49;6.90;76.80
59208;DHT22;44977;53.132;6.408;2023-04-05T20:12:50;6.80;77.90
59208;DHT22;44977;53.132;6.408;2023-04-05T20:17:50;6.70;78.50
59208;DHT22;44977;53.132;6.408;2023-04-05T20:22:52;6.60;78.60
59208;DHT22;44977;53.132;6.408;2023-04-05T20:27:54;6.40;80.20
59208;DHT22;44977;53.132;6.408;2023-04-05T20:32:55;6.30;81.90
59208;DHT22;44977;53.132;6.408;2023-04-05T20:37:56;6.30;82.20
59208;DHT22;44977;53.132;6.408;2023-04-05T20:42:56;6.20;83.50
59208;DHT22;44977;53.132;6.408;2023-04-05T20:47:57;6.10;84.30
59208;DHT22;44977;53.132;6.408;2023-04-05T20:53:00;6.10;84.30
59208;DHT22;44977;53.132;6.408;2023-04-05T20:58:05;6.00;84.80
59208;DHT22;44977;53.132;6.408;2023-04-05T21:03:08;5.90;85.10
59208;DHT22;44977;53.132;6.408;2023-04-05T21:08:09;5.90;85.80
59208;DHT22;44977;53.132;6.408;2023-04-05T21:13:10;5.80;86.20
59208;DHT22;44977;53.132;6.408;2023-04-05T21:18:11;5.70;87.00
59208;DHT22;44977;53.132;6.408;2023-04-05T21:23:18;5.70;85.90
59208;DHT22;44977;53.132;6.408;2023-04-05T21:28:21;5.70;87.60
59208;DHT22;44977;53.132;6.408;2023-04-05T21:33:22;5.60;86.40
59208;DHT22;44977;53.132;6.408;2023-04-05T21:38:22;5.60;86.70
59208;DHT22;44977;53.132;6.408;2023-04-05T21:43:23;5.50;87.10
59208;DHT22;44977;53.132;6.408;2023-04-05T21:48:24;5.40;86.90
59208;DHT22;44977;53.132;6.408;2023-04-05T21:53:27;5.40;87.40
59208;DHT22;44977;53.132;6.408;2023-04-05T21:58:28;5.30;87.50
59208;DHT22;44977;53.132;6.408;2023-04-05T22:03:28;5.20;88.30
59208;DHT22;44977;53.132;6.408;2023-04-05T22:08:29;5.10;89.50
59208;DHT22;44977;53.132;6.408;2023-04-05T22:13:33;5.10;90.00
59208;DHT22;44977;53.132;6.408;2023-04-05T22:18:33;5.00;90.30
59208;DHT22;44977;53.132;6.408;2023-04-05T22:23:34;5.00;91.10
59208;DHT22;44977;53.132;6.408;2023-04-05T22:28:35;4.90;90.40
59208;DHT22;44977;53.132;6.408;2023-04-05T22:33:36;4.80;91.00
59208;DHT22;44977;53.132;6.408;2023-04-05T22:38:36;4.80;90.90
59208;DHT22;44977;53.132;6.408;2023-04-05T22:43:37;4.70;91.10
59208;DHT22;44977;53.132;6.408;2023-04-05T22:48:38;4.60;91.30
59208;DHT22;44977;53.132;6.408;2023-04-05T22:53:38;4.60;91.60
59208;DHT22;44977;53.132;6.408;2023-04-05T22:58:42;4.60;92.00
59208;DHT22;44977;53.132;6.408;2023-04-05T23:03:43;4.50;92.20
59208;DHT22;44977;53.132;6.408;2023-04-05T23:08:44;4.50;92.80
59208;DHT22;44977;53.132;6.408;2023-04-05T23:13:45;4.40;92.70
59208;DHT22;44977;53.132;6.408;2023-04-05T23:18:46;4.30;93.80
59208;DHT22;44977;53.132;6.408;2023-04-05T23:23:48;4.30;93.70
59208;DHT22;44977;53.132;6.408;2023-04-05T23:28:49;4.30;94.40
59208;DHT22;44977;53.132;6.408;2023-04-05T23:33:50;4.20;94.50
59208;DHT22;44977;53.132;6.408;2023-04-05T23:38:51;4.20;94.70
59208;DHT22;44977;53.132;6.408;2023-04-05T23:43:51;4.10;95.50
59208;DHT22;44977;53.132;6.408;2023-04-05T23:48:52;4.10;95.10
59208;DHT22;44977;53.132;6.408;2023-04-05T23:53:53;4.00;95.90
59208;DHT22;44977;53.132;6.408;2023-04-05T23:58:54;3.90;96.10
